createdAt,value
2023-06-10T00:00:06.806Z,8.68
2023-06-10T00:02:33.407Z,8.27
2023-06-10T00:04:59.985Z,8.32
2023-06-10T00:07:26.580Z,9.25
2023-06-10T00:09:53.252Z,8.45
2023-06-10T00:12:21.481Z,9.63
2023-06-10T00:14:51.986Z,8.98
2023-06-10T00:17:18.911Z,9.88
2023-06-10T00:19:48.203Z,8.00
2023-06-10T00:22:15.578Z,9.75
2023-06-10T00:29:36.328Z,9.00
2023-06-10T00:32:03.251Z,10.10
2023-06-10T00:34:29.944Z,9.27
2023-06-10T00:36:56.453Z,9.52
2023-06-10T00:39:23.003Z,12.68
2023-06-10T00:41:49.551Z,9.30
2023-06-10T00:44:16.925Z,8.52
2023-06-10T00:46:44.100Z,9.35
2023-06-10T00:49:10.982Z,8.82
2023-06-10T00:51:37.524Z,8.68
2023-06-10T00:54:05.383Z,9.32
2023-06-10T00:56:33.560Z,8.90
2023-06-10T00:59:00.491Z,8.75
2023-06-10T01:01:27.775Z,9.13
2023-06-10T01:03:54.259Z,8.63
2023-06-10T01:06:58.384Z,9.80
2023-06-10T01:10:02.229Z,9.52
2023-06-10T01:12:42.605Z,9.77
2023-06-10T01:15:11.460Z,9.65
2023-06-10T01:17:59.415Z,13.05
2023-06-10T01:20:30.891Z,9.43
2023-06-10T01:22:59.104Z,11.13
2023-06-10T01:25:30.665Z,9.13
2023-06-10T01:28:26.624Z,9.10
2023-06-10T01:30:56.945Z,9.95
2023-06-10T01:33:28.944Z,9.38
2023-06-10T01:35:58.512Z,9.95
2023-06-10T01:38:27.767Z,8.88
2023-06-10T01:40:56.515Z,9.43
2023-06-10T01:43:23.195Z,9.73
2023-06-10T01:45:50.016Z,9.90
2023-06-10T01:48:17.434Z,10.50
2023-06-10T01:50:45.023Z,10.60
2023-06-10T01:53:11.481Z,10.90
2023-06-10T01:55:37.979Z,11.48
2023-06-10T01:58:04.479Z,10.82
2023-06-10T02:00:32.211Z,11.32
2023-06-10T02:02:58.891Z,10.30
2023-06-10T02:05:25.951Z,13.23
2023-06-10T02:07:52.411Z,10.63
2023-06-10T02:10:18.925Z,9.93
2023-06-10T02:12:45.429Z,12.00
2023-06-10T02:15:12.109Z,11.32
2023-06-10T02:17:38.866Z,9.70
2023-06-10T02:20:08.293Z,11.25
2023-06-10T02:22:34.927Z,11.23
2023-06-10T02:25:01.533Z,11.27
2023-06-10T02:27:28.461Z,11.23
2023-06-10T02:29:55.133Z,10.02
2023-06-10T02:32:21.768Z,10.65
2023-06-10T02:34:50.171Z,10.60
2023-06-10T02:37:17.062Z,10.20
2023-06-10T02:39:43.631Z,9.93
2023-06-10T02:42:11.206Z,10.65
2023-06-10T02:44:38.010Z,10.50
2023-06-10T02:47:04.895Z,11.35
2023-06-10T02:49:31.567Z,11.23
2023-06-10T02:51:58.260Z,12.98
2023-06-10T02:54:25.428Z,10.48
2023-06-10T02:56:53.411Z,11.45
2023-06-10T02:59:20.098Z,10.43
2023-06-10T03:01:48.516Z,10.15
2023-06-10T03:04:15.900Z,9.90
2023-06-10T03:06:42.777Z,10.30
2023-06-10T03:09:09.498Z,12.68
2023-06-10T03:11:36.461Z,10.82
2023-06-10T03:14:03.627Z,10.43
2023-06-10T03:16:31.535Z,11.13
2023-06-10T03:18:58.352Z,11.52
2023-06-10T03:21:24.977Z,12.15
2023-06-10T03:23:51.553Z,12.15
2023-06-10T03:26:18.153Z,12.85
2023-06-10T03:28:44.634Z,11.38
2023-06-10T03:31:11.233Z,11.00
2023-06-10T03:33:38.540Z,10.93
2023-06-10T03:36:05.538Z,11.60
2023-06-10T03:38:31.997Z,11.60
2023-06-10T03:40:58.505Z,11.25
2023-06-10T03:43:24.967Z,12.25
2023-06-10T03:45:51.481Z,11.00
2023-06-10T03:48:18.130Z,11.68
2023-06-10T03:50:44.696Z,11.38
2023-06-10T03:53:11.360Z,11.75
2023-06-10T03:55:37.956Z,11.75
2023-06-10T03:58:04.479Z,10.07
2023-06-10T04:00:31.096Z,11.15
2023-06-10T04:02:59.231Z,12.40
2023-06-10T04:05:25.910Z,10.55
2023-06-10T04:07:52.461Z,11.32
2023-06-10T04:10:19.173Z,12.55
2023-06-10T04:12:45.761Z,10.98
2023-06-10T04:15:12.610Z,10.38
2023-06-10T04:17:39.556Z,11.00
2023-06-10T04:20:08.754Z,11.95
2023-06-10T04:22:35.275Z,12.30
2023-06-10T04:25:01.858Z,11.30
2023-06-10T04:27:28.739Z,11.35
2023-06-10T04:29:55.590Z,10.30
2023-06-10T04:32:22.585Z,10.40
2023-06-10T04:34:50.038Z,10.40
2023-06-10T04:37:16.499Z,13.80
2023-06-10T04:39:43.118Z,10.55
2023-06-10T04:42:09.839Z,9.32
2023-06-10T04:44:36.327Z,9.77
2023-06-10T04:47:03.319Z,10.50
2023-06-10T04:51:57.327Z,9.27
2023-06-10T04:54:23.790Z,9.60
2023-06-10T04:56:50.412Z,9.20
2023-06-10T04:59:16.909Z,8.05
2023-06-10T05:01:43.419Z,8.38
2023-06-10T05:04:10.044Z,8.52
2023-06-10T05:06:37.649Z,8.40
2023-06-10T05:09:04.210Z,7.78
2023-06-10T05:11:30.762Z,9.73
2023-06-10T05:13:57.202Z,7.55
2023-06-10T05:16:23.732Z,9.27
2023-06-10T05:18:51.993Z,7.47
2023-06-10T05:21:18.535Z,9.95
2023-06-10T05:23:45.011Z,8.88
2023-06-10T05:26:11.852Z,8.20
2023-06-10T05:28:38.353Z,7.80
2023-06-10T05:31:04.971Z,6.85
2023-06-10T05:35:57.840Z,7.72
2023-06-10T05:38:24.344Z,7.38
2023-06-10T05:40:50.802Z,7.65
2023-06-10T05:43:17.886Z,10.25
2023-06-10T05:45:44.551Z,7.22
2023-06-10T05:48:11.297Z,9.00
2023-06-10T05:50:39.917Z,8.02
2023-06-10T05:53:08.259Z,9.82
2023-06-10T05:55:35.006Z,7.97
2023-06-10T05:58:01.800Z,6.18
2023-06-10T06:00:28.490Z,8.40
2023-06-10T06:02:55.672Z,7.70
2023-06-10T06:05:22.336Z,6.43
2023-06-10T06:07:48.952Z,6.55
2023-06-10T06:10:15.644Z,7.32
2023-06-10T06:12:42.091Z,6.97
2023-06-10T06:17:36.711Z,7.82
2023-06-10T06:20:04.514Z,8.00
2023-06-10T06:22:31.067Z,6.60
2023-06-10T06:24:57.692Z,8.10
2023-06-10T06:27:24.180Z,7.57
2023-06-10T06:32:19.148Z,7.68
2023-06-10T06:34:45.928Z,9.93
2023-06-10T06:37:12.396Z,7.47
2023-06-10T06:42:06.818Z,9.38
2023-06-10T06:44:33.337Z,6.82
2023-06-10T06:54:19.107Z,7.22
2023-06-10T06:59:14.977Z,7.43
2023-06-10T07:01:41.538Z,8.88
2023-06-10T07:04:08.086Z,9.05
2023-06-10T07:09:06.017Z,7.90
2023-06-10T07:11:32.471Z,7.20
2023-06-10T07:16:25.472Z,5.75
2023-06-10T07:18:51.995Z,6.55
2023-06-10T07:21:18.493Z,6.95
2023-06-10T07:26:14.378Z,6.35
2023-06-10T07:28:41.934Z,8.80
2023-06-10T07:31:09.343Z,7.82
2023-06-10T07:33:35.903Z,9.70
2023-06-10T07:36:02.382Z,6.80
2023-06-10T07:40:55.279Z,8.00
2023-06-10T07:45:48.294Z,7.80
2023-06-10T07:48:14.947Z,6.72
2023-06-10T07:50:41.643Z,7.00
2023-06-10T07:53:08.253Z,9.13
2023-06-10T07:55:34.777Z,6.85
2023-06-10T07:58:01.278Z,6.25
2023-06-10T08:02:54.343Z,15.18
2023-06-10T08:05:21.940Z,6.60
2023-06-10T08:07:48.656Z,7.30
2023-06-10T08:10:15.205Z,6.97
2023-06-10T08:12:41.737Z,5.65
2023-06-10T08:15:09.099Z,6.18
2023-06-10T08:17:35.915Z,6.68
2023-06-10T08:20:02.595Z,8.02
2023-06-10T08:22:30.520Z,5.05
2023-06-10T08:24:57.536Z,5.93
2023-06-10T08:27:24.205Z,6.75
2023-06-10T08:29:50.844Z,6.25
2023-06-10T08:32:17.669Z,5.40
2023-06-10T08:34:44.327Z,6.97
2023-06-10T08:37:10.842Z,5.57
2023-06-10T08:39:37.330Z,5.35
2023-06-10T08:42:22.639Z,5.13
2023-06-10T08:44:54.006Z,7.60
2023-06-10T08:47:23.020Z,5.95
2023-06-10T08:49:50.091Z,5.63
2023-06-10T08:52:21.663Z,6.32
2023-06-10T08:55:12.702Z,5.50
2023-06-10T08:57:39.488Z,4.47
2023-06-10T09:00:07.682Z,5.75
2023-06-10T09:02:38.837Z,6.80
2023-06-10T09:05:06.633Z,8.05
2023-06-10T09:07:35.453Z,5.63
2023-06-10T09:10:04.124Z,5.38
2023-06-10T09:12:30.758Z,5.55
2023-06-10T09:14:57.447Z,6.88
2023-06-10T09:19:58.120Z,5.80
2023-06-10T09:22:27.525Z,5.70
2023-06-10T09:25:38.707Z,4.93
2023-06-10T09:28:21.043Z,5.53
2023-06-10T09:30:47.688Z,5.05
2023-06-10T09:33:18.628Z,5.70
2023-06-10T09:35:50.169Z,7.22
2023-06-10T09:38:22.745Z,5.65
2023-06-10T09:41:00.215Z,6.32
2023-06-10T09:43:46.247Z,5.40
2023-06-10T09:46:29.330Z,5.70
2023-06-10T09:52:30.878Z,4.95
2023-06-10T10:05:08.161Z,5.47
2023-06-10T10:07:35.026Z,6.15
2023-06-10T10:12:28.844Z,5.70
2023-06-10T10:14:57.027Z,5.20
2023-06-10T10:17:26.076Z,5.30
2023-06-10T10:19:59.131Z,4.78
2023-06-10T10:22:36.290Z,5.57
2023-06-10T10:25:07.071Z,5.18
2023-06-10T10:28:02.594Z,5.00
2023-06-10T10:30:31.216Z,5.50
2023-06-10T10:33:41.755Z,5.22
2023-06-10T10:36:08.953Z,6.18
2023-06-10T10:38:36.973Z,4.82
2023-06-10T10:41:04.936Z,6.20
2023-06-10T10:43:31.943Z,6.15
2023-06-10T10:48:45.386Z,5.65
2023-06-10T10:51:12.363Z,6.55
2023-06-10T10:53:40.136Z,5.70
2023-06-10T10:56:15.450Z,5.40
2023-06-10T10:58:42.188Z,5.20
2023-06-10T11:01:16.061Z,5.40
2023-06-10T11:03:48.200Z,5.00
2023-06-10T11:06:16.699Z,5.32
2023-06-10T11:08:43.699Z,4.95
2023-06-10T11:11:26.839Z,6.70
2023-06-10T11:14:07.963Z,5.50
2023-06-10T11:16:43.454Z,5.60
2023-06-10T11:19:11.142Z,5.70
2023-06-10T11:22:04.966Z,5.65
2023-06-10T11:24:31.833Z,7.82
2023-06-10T11:27:20.716Z,5.13
2023-06-10T11:30:06.738Z,5.20
2023-06-10T11:32:36.534Z,5.43
2023-06-10T11:35:08.216Z,5.78
2023-06-10T11:37:35.108Z,5.53
2023-06-10T11:40:01.865Z,5.47
2023-06-10T11:42:28.909Z,7.10
2023-06-10T11:44:55.836Z,5.28
2023-06-10T11:47:23.271Z,4.30
2023-06-10T11:49:59.784Z,5.03
2023-06-10T11:52:33.305Z,6.00
2023-06-10T11:55:00.289Z,5.93
2023-06-10T11:57:26.968Z,5.10
2023-06-10T11:59:53.506Z,5.47
2023-06-10T12:04:47.213Z,6.75
2023-06-10T12:09:47.625Z,6.43
2023-06-10T12:15:07.103Z,4.82
2023-06-10T12:17:40.241Z,8.57
2023-06-10T12:20:25.190Z,4.88
2023-06-10T12:22:51.721Z,5.00
2023-06-10T12:25:18.224Z,5.20
2023-06-10T12:27:52.999Z,4.47
2023-06-10T12:30:21.882Z,5.43
2023-06-10T12:32:49.250Z,4.70
2023-06-10T12:35:19.199Z,5.72
2023-06-10T12:38:07.750Z,5.30
2023-06-10T12:40:43.273Z,6.53
2023-06-10T12:43:10.654Z,4.68
2023-06-10T12:45:40.936Z,4.35
2023-06-10T12:48:18.841Z,4.93
2023-06-10T12:50:45.769Z,6.05
2023-06-10T12:53:12.602Z,4.10
2023-06-10T12:55:39.808Z,4.57
2023-06-10T12:58:06.425Z,8.05
2023-06-10T13:00:33.005Z,4.00
2023-06-10T13:05:30.623Z,5.00
2023-06-10T13:07:57.229Z,4.22
2023-06-10T13:12:53.515Z,5.22
2023-06-10T13:15:20.109Z,4.85
2023-06-10T13:17:50.302Z,4.47
2023-06-10T13:20:17.987Z,4.75
2023-06-10T13:22:44.717Z,5.10
2023-06-10T13:25:11.770Z,4.32
2023-06-10T13:27:43.419Z,5.05
2023-06-10T13:30:12.123Z,4.85
2023-06-10T13:32:39.524Z,5.97
2023-06-10T13:35:06.851Z,4.65
2023-06-10T13:37:34.879Z,4.50
2023-06-10T13:40:03.598Z,8.02
2023-06-10T13:42:30.512Z,4.38
2023-06-10T13:44:57.903Z,5.25
2023-06-10T13:47:24.453Z,6.25
2023-06-10T13:49:51.182Z,4.45
2023-06-10T13:52:17.949Z,5.68
2023-06-10T13:54:44.517Z,4.63
2023-06-10T13:59:38.567Z,5.15
2023-06-10T14:02:07.917Z,4.38
2023-06-10T14:04:34.532Z,5.28
2023-06-10T14:09:28.235Z,5.03
2023-06-10T14:11:55.456Z,4.90
2023-06-10T14:14:21.943Z,4.93
2023-06-10T14:16:48.583Z,4.93
2023-06-10T14:21:41.757Z,5.32
2023-06-10T14:24:08.287Z,5.30
2023-06-10T14:26:34.921Z,5.50
2023-06-10T14:31:30.093Z,4.90
2023-06-10T14:36:23.142Z,5.50
2023-06-10T14:38:49.947Z,5.55
2023-06-10T14:41:16.569Z,4.38
2023-06-10T14:46:09.566Z,3.63
2023-06-10T14:51:03.432Z,4.22
2023-06-10T14:53:30.343Z,5.78
2023-06-10T14:55:56.884Z,6.63
2023-06-10T14:58:23.419Z,4.95
2023-06-10T15:03:16.488Z,4.97
2023-06-10T15:05:42.925Z,4.97
2023-06-10T15:08:09.410Z,5.25
2023-06-10T15:10:35.972Z,5.18
2023-06-10T15:13:02.404Z,7.25
2023-06-10T15:15:29.077Z,4.60
2023-06-10T15:20:22.240Z,4.82
2023-06-10T15:27:45.330Z,6.55
2023-06-10T15:30:11.970Z,4.93
2023-06-10T15:32:38.715Z,6.70
2023-06-10T15:35:05.724Z,6.78
2023-06-10T15:37:32.215Z,4.65
2023-06-10T15:39:58.765Z,4.30
2023-06-10T15:44:53.743Z,5.50
2023-06-10T15:47:21.473Z,4.95
2023-06-10T15:49:48.285Z,5.20
2023-06-10T15:52:14.845Z,5.75
2023-06-10T15:54:41.371Z,5.20
2023-06-10T15:57:09.367Z,4.78
2023-06-10T15:59:36.156Z,5.00
2023-06-10T16:02:04.359Z,6.57
2023-06-10T16:04:30.988Z,7.15
2023-06-10T16:09:24.875Z,5.70
2023-06-10T16:11:51.380Z,6.30
2023-06-10T16:14:17.835Z,5.47
2023-06-10T16:16:44.437Z,6.00
2023-06-10T16:19:11.056Z,6.78
2023-06-10T16:24:05.593Z,6.05
2023-06-10T16:26:32.708Z,6.97
2023-06-10T16:29:01.300Z,6.13
2023-06-10T16:31:27.961Z,5.28
2023-06-10T16:33:54.458Z,5.18
2023-06-10T16:36:20.934Z,6.75
2023-06-10T16:38:47.882Z,5.05
2023-06-10T16:41:14.365Z,5.68
2023-06-10T16:43:40.916Z,8.18
2023-06-10T16:46:07.633Z,5.07
2023-06-10T16:51:00.567Z,7.90
2023-06-10T16:53:27.583Z,9.82
2023-06-10T16:55:54.118Z,6.95
2023-06-10T16:58:20.586Z,5.05
2023-06-10T17:00:47.309Z,7.93
2023-06-10T17:05:40.496Z,6.07
2023-06-10T17:08:07.737Z,5.45
2023-06-10T17:10:35.961Z,5.25
2023-06-10T17:13:02.882Z,4.72
2023-06-10T17:15:29.375Z,5.90
2023-06-10T17:17:56.164Z,9.02
2023-06-10T17:20:22.851Z,5.00
2023-06-10T17:22:49.302Z,5.07
2023-06-10T17:25:16.206Z,6.40
2023-06-10T17:27:42.854Z,5.70
2023-06-10T17:30:09.813Z,5.25
2023-06-10T17:32:38.204Z,4.32
2023-06-10T17:35:05.448Z,6.40
2023-06-10T17:37:32.171Z,6.03
2023-06-10T17:42:25.632Z,5.55
2023-06-10T17:44:52.178Z,5.30
2023-06-10T17:47:18.779Z,6.13
2023-06-10T17:52:11.814Z,4.30
2023-06-10T17:54:38.416Z,4.97
2023-06-10T17:57:05.169Z,5.57
2023-06-10T18:01:58.231Z,4.72
2023-06-10T18:04:24.885Z,5.30
2023-06-10T18:09:18.234Z,5.40
2023-06-10T18:11:44.863Z,5.15
2023-06-10T18:14:12.765Z,5.07
2023-06-10T18:16:39.327Z,5.05
2023-06-10T18:19:06.405Z,5.70
2023-06-10T18:21:33.032Z,5.20
2023-06-10T18:23:59.746Z,5.05
2023-06-10T18:28:53.385Z,5.93
2023-06-10T18:31:20.054Z,5.90
2023-06-10T18:33:50.114Z,6.35
2023-06-10T18:36:16.612Z,6.68
2023-06-10T18:38:43.171Z,5.70
2023-06-10T18:41:09.664Z,7.15
2023-06-10T18:43:36.204Z,5.78
2023-06-10T18:46:03.065Z,7.28
2023-06-10T18:48:29.754Z,6.20
2023-06-10T18:50:56.364Z,6.43
2023-06-10T18:53:23.046Z,7.32
2023-06-10T18:55:49.562Z,5.82
2023-06-10T18:58:16.156Z,6.25
2023-06-10T19:00:42.726Z,5.35
2023-06-10T19:03:09.395Z,6.07
2023-06-10T19:05:35.911Z,5.20
2023-06-10T19:08:02.431Z,6.47
2023-06-10T19:10:28.884Z,5.82
2023-06-10T19:12:55.502Z,8.25
2023-06-10T19:15:22.027Z,6.78
2023-06-10T19:17:48.555Z,6.18
2023-06-10T19:20:15.041Z,6.95
2023-06-10T19:22:41.613Z,7.13
2023-06-10T19:25:08.780Z,6.60
2023-06-10T19:27:35.730Z,5.80
2023-06-10T19:30:07.880Z,6.15
2023-06-10T19:32:35.636Z,5.65
2023-06-10T19:35:02.240Z,6.28
2023-06-10T19:37:28.739Z,6.53
2023-06-10T19:39:55.227Z,5.85
2023-06-10T19:42:21.758Z,8.23
2023-06-10T19:44:48.806Z,6.30
2023-06-10T19:47:15.420Z,5.70
2023-06-10T19:49:42.606Z,5.68
2023-06-10T19:52:09.431Z,5.88
2023-06-10T19:54:36.726Z,7.03
2023-06-10T19:57:03.891Z,6.57
2023-06-10T19:59:31.047Z,6.13
2023-06-10T20:01:59.943Z,7.15
2023-06-10T20:04:30.133Z,5.72
2023-06-10T20:06:57.019Z,5.70
2023-06-10T20:09:23.866Z,6.28
2023-06-10T20:11:50.438Z,5.53
2023-06-10T20:14:31.049Z,6.30
2023-06-10T20:16:57.500Z,5.85
2023-06-10T20:19:24.083Z,5.13
2023-06-10T20:21:50.567Z,6.57
2023-06-10T20:24:17.228Z,6.03
2023-06-10T20:26:43.845Z,9.50
2023-06-10T20:29:16.143Z,10.23
2023-06-10T20:31:46.290Z,6.90
2023-06-10T20:34:15.242Z,6.07
2023-06-10T20:36:42.548Z,6.03
2023-06-10T20:39:09.109Z,6.28
2023-06-10T20:41:35.655Z,5.35
2023-06-10T20:44:02.249Z,6.18
2023-06-10T20:46:28.820Z,7.55
2023-06-10T20:48:55.480Z,5.90
2023-06-10T20:51:22.747Z,7.55
2023-06-10T20:53:49.345Z,6.65
2023-06-10T20:56:15.970Z,6.25
2023-06-10T20:58:42.809Z,7.13
2023-06-10T21:01:11.262Z,6.53
2023-06-10T21:03:38.099Z,6.57
2023-06-10T21:06:04.895Z,6.00
2023-06-10T21:08:31.606Z,6.03
2023-06-10T21:10:58.175Z,6.53
2023-06-10T21:13:24.784Z,6.25
2023-06-10T21:15:51.303Z,5.72
2023-06-10T21:18:17.890Z,5.90
2023-06-10T21:20:45.568Z,6.30
2023-06-10T21:23:13.242Z,6.20
2023-06-10T21:25:40.264Z,6.03
2023-06-10T21:30:33.415Z,6.68
2023-06-10T21:33:00.046Z,6.57
2023-06-10T21:35:26.564Z,6.07
2023-06-10T21:37:53.071Z,7.15
2023-06-10T21:40:19.817Z,6.40
2023-06-10T21:42:46.339Z,7.82
2023-06-10T21:45:13.402Z,6.47
2023-06-10T21:47:41.717Z,6.55
2023-06-10T21:50:09.472Z,6.57
2023-06-10T21:52:40.387Z,6.57
2023-06-10T21:55:12.593Z,8.25
2023-06-10T21:57:45.682Z,6.95
2023-06-10T22:00:14.594Z,6.53
2023-06-10T22:02:47.543Z,7.00
2023-06-10T22:05:20.002Z,6.07
2023-06-10T22:07:47.292Z,6.03
2023-06-10T22:10:20.029Z,6.75
2023-06-10T22:12:48.625Z,8.40
2023-06-10T22:18:05.129Z,6.68
2023-06-10T22:20:35.366Z,6.03
2023-06-10T22:47:51.816Z,6.47
2023-06-10T22:51:49.740Z,8.25
2023-06-10T23:01:36.657Z,6.18
2023-06-10T23:04:06.740Z,6.95
2023-06-10T23:14:48.525Z,6.25
2023-06-10T23:20:41.678Z,6.90
2023-06-10T23:27:04.656Z,7.95
2023-06-10T23:29:35.281Z,6.90
2023-06-10T23:32:04.167Z,6.60
2023-06-10T23:36:57.573Z,6.85
2023-06-10T23:39:24.130Z,7.18
2023-06-10T23:41:50.682Z,6.55
2023-06-10T23:44:17.246Z,6.88
2023-06-10T23:46:43.744Z,7.05
2023-06-10T23:49:10.589Z,6.45
2023-06-10T23:51:38.302Z,6.95
2023-06-10T23:54:05.689Z,8.02
2023-06-10T23:56:32.211Z,7.07
2023-06-10T23:58:58.635Z,6.82
